createdAt,value
2019-01-19T00:01:40.475Z,28.60
2019-01-19T00:07:30.910Z,26.47
2019-01-19T00:12:57.863Z,29.13
2019-01-19T00:18:35.392Z,31.70
2019-01-19T00:24:14.061Z,26.43
2019-01-19T00:29:49.588Z,30.03
2019-01-19T00:35:39.788Z,29.77
2019-01-19T00:41:21.258Z,29.90
2019-01-19T00:47:04.568Z,31.13
2019-01-19T00:52:31.441Z,28.83
2019-01-19T00:58:29.702Z,28.97
2019-01-19T01:04:07.332Z,30.13
2019-01-19T01:09:50.883Z,29.23
2019-01-19T01:15:41.976Z,28.00
2019-01-19T01:21:23.811Z,30.00
2019-01-19T01:27:11.819Z,30.03
2019-01-19T01:32:42.970Z,30.60
2019-01-19T01:38:05.710Z,26.80
2019-01-19T01:43:41.206Z,25.97
2019-01-19T01:49:24.525Z,28.90
2019-01-19T01:55:00.415Z,28.10
2019-01-19T02:01:02.707Z,31.07
2019-01-19T02:06:33.206Z,29.77
2019-01-19T02:12:09.957Z,32.87
2019-01-19T02:18:05.895Z,30.83
2019-01-19T02:23:54.008Z,30.10
2019-01-19T02:29:48.314Z,33.40
2019-01-19T02:35:29.198Z,33.50
2019-01-19T02:41:11.452Z,31.57
2019-01-19T02:47:11.788Z,32.67
2019-01-19T02:52:42.000Z,29.77
2019-01-19T02:58:18.208Z,32.33
2019-01-19T03:04:03.326Z,31.23
2019-01-19T03:10:08.498Z,34.33
2019-01-19T03:15:56.074Z,32.10
2019-01-19T03:22:02.935Z,32.10
2019-01-19T03:27:43.711Z,30.43
2019-01-19T03:33:35.831Z,27.60
2019-01-19T03:39:15.468Z,30.67
2019-01-19T03:45:12.707Z,35.70
2019-01-19T03:51:03.228Z,30.00
2019-01-19T03:56:50.075Z,30.97
2019-01-19T04:02:16.982Z,27.47
2019-01-19T04:08:11.068Z,28.10
2019-01-19T04:13:49.952Z,33.07
2019-01-19T04:19:12.152Z,27.20
2019-01-19T04:24:22.298Z,33.27
2019-01-19T04:29:32.173Z,27.00
2019-01-19T04:34:39.796Z,28.20
2019-01-19T04:39:46.525Z,27.53
2019-01-19T04:44:56.686Z,28.30
2019-01-19T04:50:03.535Z,24.37
2019-01-19T04:55:12.844Z,28.07
2019-01-19T05:00:20.555Z,26.10
2019-01-19T05:05:26.506Z,26.43
2019-01-19T05:10:34.074Z,25.87
2019-01-19T05:15:42.875Z,26.60
2019-01-19T05:20:50.000Z,25.73
2019-01-19T05:25:57.126Z,24.90
2019-01-19T05:31:03.639Z,25.70
2019-01-19T05:36:13.206Z,27.77
2019-01-19T05:41:23.104Z,25.67
2019-01-19T05:46:29.799Z,21.30
2019-01-19T05:51:37.173Z,25.47
2019-01-19T05:56:45.526Z,28.13
2019-01-19T06:01:54.610Z,23.80
2019-01-19T06:07:03.166Z,25.60
2019-01-19T06:12:09.926Z,24.53
2019-01-19T06:17:15.827Z,22.50
2019-01-19T06:22:23.640Z,23.50
2019-01-19T06:27:31.506Z,21.73
2019-01-19T06:32:37.484Z,22.47
2019-01-19T06:37:45.011Z,23.33
2019-01-19T06:42:52.532Z,20.33
2019-01-19T06:48:00.056Z,21.33
2019-01-19T06:53:06.168Z,23.17
2019-01-19T06:58:14.815Z,26.77
2019-01-19T07:03:24.641Z,23.43
2019-01-19T07:08:33.347Z,31.27
2019-01-19T07:13:42.211Z,19.70
2019-01-19T07:18:49.123Z,27.23
2019-01-19T07:23:58.985Z,22.87
2019-01-19T07:29:07.980Z,27.87
2019-01-19T07:34:16.739Z,24.67
2019-01-19T07:39:23.565Z,23.87
2019-01-19T07:44:31.371Z,23.40
2019-01-19T07:49:37.350Z,23.20
2019-01-19T07:54:45.032Z,25.47
2019-01-19T07:59:52.738Z,24.57
2019-01-19T08:04:59.479Z,22.87
2019-01-19T08:10:08.379Z,22.27
2019-01-19T08:15:18.067Z,18.83
2019-01-19T08:20:25.788Z,20.73
2019-01-19T08:25:33.335Z,23.93
2019-01-19T08:30:41.414Z,22.47
2019-01-19T08:35:49.144Z,21.07
2019-01-19T08:40:56.244Z,24.83
2019-01-19T08:46:04.024Z,19.73
2019-01-19T08:51:11.455Z,20.17
2019-01-19T08:56:17.636Z,19.90
2019-01-19T09:01:24.095Z,20.00
2019-01-19T09:06:33.479Z,19.33
2019-01-19T09:11:40.864Z,18.60
2019-01-19T09:16:47.144Z,22.87
2019-01-19T09:21:54.085Z,17.87
2019-01-19T09:27:00.657Z,19.67
2019-01-19T09:32:08.436Z,17.97
2019-01-19T09:37:14.471Z,19.03
2019-01-19T09:42:22.030Z,20.70
2019-01-19T09:47:29.613Z,17.97
2019-01-19T09:52:36.604Z,22.60
2019-01-19T09:57:43.662Z,16.57
2019-01-19T10:02:51.236Z,20.33
2019-01-19T10:07:58.200Z,20.13
2019-01-19T10:13:04.248Z,16.83
2019-01-19T10:18:11.472Z,51.53
2019-01-19T10:23:17.548Z,13.27
2019-01-19T10:28:23.942Z,16.93
2019-01-19T10:33:29.937Z,15.87
2019-01-19T10:38:37.404Z,14.90
2019-01-19T10:43:43.751Z,15.50
2019-01-19T10:48:51.900Z,18.37
2019-01-19T10:53:59.102Z,15.37
2019-01-19T10:59:05.283Z,13.43
2019-01-19T11:04:12.676Z,13.33
2019-01-19T11:09:19.287Z,16.27
2019-01-19T11:14:27.105Z,11.83
2019-01-19T11:19:34.090Z,16.50
2019-01-19T11:24:40.091Z,14.80
2019-01-19T11:29:46.487Z,15.67
2019-01-19T11:34:54.184Z,15.37
2019-01-19T11:40:01.083Z,14.17
2019-01-19T11:45:09.298Z,14.87
2019-01-19T11:50:16.960Z,15.70
2019-01-19T11:55:24.258Z,16.97
2019-01-19T12:00:32.934Z,21.77
2019-01-19T12:05:40.505Z,12.07
2019-01-19T12:10:48.232Z,20.53
2019-01-19T12:15:55.513Z,19.37
2019-01-19T12:21:03.218Z,17.57
2019-01-19T12:26:10.114Z,17.57
2019-01-19T12:31:17.946Z,16.97
2019-01-19T12:36:25.760Z,14.37
2019-01-19T12:41:33.586Z,11.63
2019-01-19T12:46:41.307Z,13.83
2019-01-19T12:51:48.806Z,17.20
2019-01-19T12:56:54.820Z,14.30
2019-01-19T13:02:02.484Z,16.13
2019-01-19T13:07:15.055Z,13.53
2019-01-19T13:12:47.956Z,13.30
2019-01-19T13:18:37.499Z,14.73
2019-01-19T13:24:13.709Z,17.20
2019-01-19T13:30:13.419Z,15.27
2019-01-19T13:36:01.089Z,18.57
2019-01-19T13:41:46.494Z,14.13
2019-01-19T13:47:43.257Z,10.37
2019-01-19T13:53:26.429Z,13.77
2019-01-19T13:59:07.912Z,13.23
2019-01-19T14:04:45.262Z,11.70
2019-01-19T14:10:17.923Z,13.33
2019-01-19T14:16:20.839Z,11.60
2019-01-19T14:22:02.073Z,14.10
2019-01-19T14:27:36.659Z,16.77
2019-01-19T14:33:07.666Z,11.80
2019-01-19T14:38:56.566Z,36.53
2019-01-19T14:44:30.168Z,19.20
2019-01-19T14:50:31.895Z,9.93
2019-01-19T14:56:30.947Z,14.13
2019-01-19T15:02:10.968Z,14.17
2019-01-19T15:08:04.359Z,24.23
2019-01-19T15:13:51.466Z,44.13
2019-01-19T15:19:29.907Z,26.40
2019-01-19T15:25:24.562Z,9.37
2019-01-19T15:31:11.953Z,12.53
2019-01-19T15:37:03.007Z,9.63
2019-01-19T15:42:50.623Z,12.73
2019-01-19T15:48:41.541Z,12.03
2019-01-19T15:54:31.192Z,13.07
2019-01-19T16:00:04.467Z,13.67
2019-01-19T16:06:00.963Z,12.03
2019-01-19T16:11:48.671Z,15.03
2019-01-19T16:17:32.673Z,28.27
2019-01-19T16:23:01.719Z,16.07
2019-01-19T16:28:52.378Z,14.93
2019-01-19T16:34:55.656Z,21.90
2019-01-19T16:40:31.869Z,20.27
2019-01-19T16:46:21.788Z,24.27
2019-01-19T16:51:53.191Z,22.60
2019-01-19T16:57:29.763Z,24.97
2019-01-19T17:03:07.179Z,28.97
2019-01-19T17:08:38.981Z,23.13
2019-01-19T17:14:14.959Z,24.77
2019-01-19T17:20:08.463Z,26.47
2019-01-19T17:26:05.611Z,27.23
2019-01-19T17:31:41.234Z,28.87
2019-01-19T17:37:06.865Z,30.50
2019-01-19T17:42:55.893Z,28.23
2019-01-19T17:48:43.250Z,31.33
2019-01-19T17:54:27.235Z,33.87
2019-01-19T18:00:01.883Z,33.53
2019-01-19T18:05:51.639Z,41.07
2019-01-19T18:11:38.795Z,35.03
2019-01-19T18:17:28.910Z,35.60
2019-01-19T18:23:14.329Z,39.10
2019-01-19T18:29:18.054Z,34.07
2019-01-19T18:35:04.965Z,34.27
2019-01-19T18:40:47.178Z,39.23
2019-01-19T18:46:33.059Z,40.90
2019-01-19T18:52:29.243Z,39.97
2019-01-19T18:58:17.858Z,31.63
2019-01-19T19:04:14.504Z,42.87
2019-01-19T19:09:39.410Z,43.23
2019-01-19T19:15:15.059Z,45.17
2019-01-19T19:20:46.024Z,42.20
2019-01-19T19:26:12.111Z,40.03
2019-01-19T19:31:47.620Z,41.50
2019-01-19T19:37:40.914Z,44.83
2019-01-19T19:43:11.143Z,44.97
2019-01-19T19:49:16.031Z,52.73
2019-01-19T19:54:24.807Z,49.43
2019-01-19T19:59:31.373Z,50.77
2019-01-19T20:04:38.977Z,46.67
2019-01-19T20:09:45.812Z,55.73
2019-01-19T20:14:53.483Z,39.43
2019-01-19T20:20:00.579Z,38.90
2019-01-19T20:25:08.735Z,43.10
2019-01-19T20:30:16.138Z,40.40
2019-01-19T20:35:24.745Z,39.83
2019-01-19T20:40:32.660Z,37.33
2019-01-19T20:45:42.807Z,36.73
2019-01-19T20:50:49.711Z,33.07
2019-01-19T20:55:55.927Z,37.07
2019-01-19T21:01:04.057Z,32.33
2019-01-19T21:06:10.236Z,36.30
2019-01-19T21:11:18.295Z,32.30
2019-01-19T21:16:24.574Z,32.70
2019-01-19T21:21:34.283Z,35.83
2019-01-19T21:26:41.174Z,29.30
2019-01-19T21:31:49.708Z,34.10
2019-01-19T21:36:56.834Z,33.77
2019-01-19T21:42:03.850Z,33.27
2019-01-19T21:47:11.610Z,34.17
2019-01-19T21:52:19.437Z,34.23
2019-01-19T21:57:27.340Z,39.37
2019-01-19T22:02:34.384Z,36.83
2019-01-19T22:07:41.986Z,38.77
2019-01-19T22:12:49.922Z,46.13
2019-01-19T22:17:58.652Z,39.20
2019-01-19T22:23:06.007Z,41.77
2019-01-19T22:28:13.671Z,35.07
2019-01-19T22:33:21.602Z,37.37
2019-01-19T22:38:28.627Z,38.20
2019-01-19T22:43:36.395Z,35.37
2019-01-19T22:48:44.139Z,38.50
2019-01-19T22:53:51.972Z,36.60
2019-01-19T22:58:59.259Z,36.73
2019-01-19T23:04:05.979Z,33.00
2019-01-19T23:09:14.151Z,31.87
2019-01-19T23:14:21.147Z,28.63
2019-01-19T23:19:28.588Z,29.80
2019-01-19T23:24:34.577Z,31.83
2019-01-19T23:29:42.281Z,30.17
2019-01-19T23:34:48.267Z,38.07
2019-01-19T23:39:54.395Z,32.50
2019-01-19T23:45:02.033Z,28.33
2019-01-19T23:50:09.080Z,28.90
2019-01-19T23:55:16.789Z,24.47
